Detall de PIREP

Printer-friendly versionPDF version

[2013/03/24 15:24:00]
Flight IATA:CT1004
Pilot Number:012
Company ICAO:CAT
Aircraft Type:C750/F
PAX:4
Departing Airport: LEBL
Destination Airport: EGLC
Alternate Airport:EGKK
Online: VATSIM
Route:OKABI UN861 TOU UY120 TUPAR UN861 DIKRO UZ273 NEVIL M189 WAFFU
Flight Level:F510
No Slew and time accel
No pause
Crash detect
Detect pilot in Cockpit between each 30 and 45 minutes
15:24 Zero fuel Weight: 22947 Lbs, Fuel Weight: 4737 Lbs
15:24 VATSIM:LEBL 241500Z 19006KT 9999 FEW025TCU 14/11 Q0999 NOSIG
15:24 VATSIM:EGLC 241450Z 06013KT 360V090 9999 SCT014 BKN024 M00/M03 Q1013
15:24 VOICE CATALONIAN / EASTER CHARTER
15:25 Parking Brakes off
15:30 Take-off
15:30 Take off Weight: 27588 Lbs
15:30 Wind: 192º @ 006 Knots Heading: 244º
15:30 POS N41º 17´ 14´´ E002º 05´ 19´´
15:30 Gear Up: 152 Knots
15:30 Flaps:3 at 152 Knots
15:30 Flaps:2 at 169 Knots
15:31 Flaps:0 at 162 Knots
15:45 Wind:263º@028 Knots Heading: 344º Ground Speed: 495 Knots Altitude 46384 ft
15:48 TOC
15:48 Fuel Weight: 4003 Lb
16:00 Wind:261º@025 Knots Heading: 330º Ground Speed: 504 Knots Altitude 50610 ft
16:15 Wind:267º@023 Knots Heading: 351º Ground Speed: 512 Knots Altitude 50672 ft
16:30 Wind:266º@021 Knots Heading: 352º Ground Speed: 515 Knots Altitude 50787 ft
16:37 TOD
16:37 Fuel Weight: 3291 Lb
16:45 Wind:164º@007 Knots Heading: 039º Ground Speed: 480 Knots Altitude 29038 ft
17:00 Wind:067º@014 Knots Heading: 295º Ground Speed: 235 Knots Altitude 3152 ft
17:06 Flaps:2 at 196 Knots
17:06 Flaps:3 at 183 Knots
17:07 Flaps:4 at 173 Knots
17:07 Gear Down: 171 Knots
17:07 Flaps:5 at 145 Knots
17:10 TouchDown:Rate -140 ft/min Speed: 112 Knots
17:11 VATSIM:EGLC 241650Z 07012KT 9999 BKN040 01/M05 Q1013
17:11 Land
17:11 Wind:074º@014 Knots
17:11 Heading: 091º
17:11 Flight Duration: 01:41
17:11 Landing Weight: 24852 Lbs
17:11 POS N51º 30´ 18´´ E000º 03´ 35´´
17:14 Parking brakes on
17:14 Block to Block Duration: 01:49
17:14 Final Fuel: 1419 Lbls
17:14 Spent Fuel: 3317 Lbls
17:14 Flight Length: 721 NM
17:14 TOD Land Length: 177 NM

Exportar CSV

Powered by Drupal - Modified by Danger4k